createdAt,value
2023-06-07T00:00:55.299Z,67.50
2023-06-07T00:02:56.901Z,66.83
2023-06-07T00:04:58.523Z,66.42
2023-06-07T00:07:00.136Z,66.42
2023-06-07T00:09:01.652Z,66.68
2023-06-07T00:11:04.569Z,66.58
2023-06-07T00:13:06.185Z,66.58
2023-06-07T00:15:08.315Z,67.42
2023-06-07T00:17:09.918Z,67.16
2023-06-07T00:19:11.496Z,66.78
2023-06-07T00:21:13.027Z,67.74
2023-06-07T00:23:14.578Z,68.67
2023-06-07T00:25:16.083Z,69.86
2023-06-07T00:27:19.484Z,69.92
2023-06-07T00:29:20.995Z,69.64
2023-06-07T00:31:22.649Z,69.69
2023-06-07T00:33:24.267Z,69.73
2023-06-07T00:35:25.845Z,69.88
2023-06-07T00:37:27.353Z,70.26
2023-06-07T00:39:28.881Z,72.23
2023-06-07T00:41:30.434Z,72.12
2023-06-07T00:43:33.304Z,71.97
2023-06-07T00:45:34.868Z,72.43
2023-06-07T00:47:38.214Z,72.92
2023-06-07T00:49:39.875Z,73.74
2023-06-07T00:51:41.477Z,73.81
2023-06-07T00:53:45.499Z,73.91
2023-06-07T00:55:47.085Z,74.49
2023-06-07T00:57:48.718Z,75.01
2023-06-07T00:59:51.856Z,74.76
2023-06-07T01:01:53.605Z,75.03
2023-06-07T01:03:56.053Z,74.12
2023-06-07T01:05:57.633Z,73.53
2023-06-07T01:07:59.478Z,74.08
2023-06-07T01:10:01.679Z,74.84
2023-06-07T01:12:05.653Z,75.83
2023-06-07T01:14:08.473Z,75.92
2023-06-07T01:16:11.510Z,76.05
2023-06-07T01:18:13.488Z,76.16
2023-06-07T01:20:20.433Z,75.79
2023-06-07T01:22:25.954Z,74.46
2023-06-07T01:24:28.907Z,74.20
2023-06-07T01:26:31.402Z,74.52
2023-06-07T01:28:34.862Z,74.78
2023-06-07T01:30:36.803Z,74.75
2023-06-07T01:32:40.747Z,74.27
2023-06-07T01:34:42.916Z,73.57
2023-06-07T01:36:44.747Z,74.28
2023-06-07T01:38:47.686Z,73.96
2023-06-07T01:40:52.547Z,75.05
2023-06-07T01:42:55.347Z,75.60
2023-06-07T01:44:59.378Z,76.51
2023-06-07T01:47:01.098Z,76.21
2023-06-07T01:49:04.349Z,75.69
2023-06-07T01:51:05.923Z,75.24
2023-06-07T01:53:07.430Z,75.50
2023-06-07T01:55:09.328Z,75.42
2023-06-07T01:57:22.674Z,75.71
2023-06-07T01:59:33.996Z,75.59
2023-06-07T02:01:43.224Z,75.52
2023-06-07T02:03:49.840Z,75.80
2023-06-07T02:05:57.360Z,76.59
2023-06-07T02:08:02.040Z,76.37
2023-06-07T02:10:05.316Z,76.05
2023-06-07T02:12:09.704Z,75.46
2023-06-07T02:14:13.172Z,75.65
2023-06-07T02:16:15.114Z,76.11
2023-06-07T02:18:20.054Z,76.23
2023-06-07T02:20:21.909Z,75.68
2023-06-07T02:22:23.424Z,75.29
2023-06-07T02:24:25.003Z,75.33
2023-06-07T02:26:26.531Z,75.46
2023-06-07T02:28:28.080Z,76.54
2023-06-07T02:30:30.980Z,76.28
2023-06-07T02:32:32.508Z,77.15
2023-06-07T02:34:34.080Z,77.14
2023-06-07T02:36:35.575Z,77.12
2023-06-07T02:38:37.094Z,77.43
2023-06-07T02:40:38.773Z,77.47
2023-06-07T02:42:44.215Z,77.72
2023-06-07T02:44:45.735Z,78.07
2023-06-07T02:46:48.703Z,77.32
2023-06-07T02:48:50.250Z,76.85
2023-06-07T02:50:51.783Z,77.02
2023-06-07T02:52:53.330Z,76.29
2023-06-07T02:54:54.877Z,76.50
2023-06-07T02:56:56.406Z,76.08
2023-06-07T02:58:57.964Z,76.23
2023-06-07T03:00:59.530Z,77.12
2023-06-07T03:03:02.493Z,78.01
2023-06-07T03:05:04.717Z,76.69
2023-06-07T03:07:06.515Z,76.95
2023-06-07T03:09:08.152Z,77.65
2023-06-07T03:11:09.683Z,78.55
2023-06-07T03:13:11.274Z,79.06
2023-06-07T03:15:12.884Z,78.62
2023-06-07T03:17:15.318Z,78.58
2023-06-07T03:19:18.184Z,78.97
2023-06-07T03:21:19.689Z,78.30
2023-06-07T03:23:21.229Z,77.71
2023-06-07T03:25:22.898Z,78.17
2023-06-07T03:27:24.576Z,78.37
2023-06-07T03:29:26.127Z,77.91
2023-06-07T03:31:27.760Z,77.90
2023-06-07T03:33:29.367Z,77.75
2023-06-07T03:35:32.234Z,76.80
2023-06-07T03:37:33.740Z,77.40
2023-06-07T03:39:35.528Z,78.66
2023-06-07T03:41:37.467Z,78.86
2023-06-07T03:43:39.014Z,77.90
2023-06-07T03:45:40.517Z,78.91
2023-06-07T03:47:42.101Z,78.26
2023-06-07T03:49:43.647Z,78.05
2023-06-07T03:51:46.518Z,78.42
2023-06-07T03:53:48.047Z,79.15
2023-06-07T03:55:49.680Z,79.71
2023-06-07T03:57:51.220Z,80.00
2023-06-07T03:59:52.802Z,80.23
2023-06-07T04:01:54.345Z,78.95
2023-06-07T04:03:55.982Z,78.72
2023-06-07T04:05:57.798Z,78.33
2023-06-07T04:08:00.830Z,79.57
2023-06-07T04:10:02.779Z,78.81
2023-06-07T04:12:05.608Z,78.54
2023-06-07T04:14:07.166Z,80.67
2023-06-07T04:16:08.862Z,80.68
2023-06-07T04:18:10.418Z,80.76
2023-06-07T04:20:12.861Z,81.43
2023-06-07T04:22:14.526Z,80.71
2023-06-07T04:24:17.510Z,80.79
2023-06-07T04:26:19.157Z,80.15
2023-06-07T04:28:21.007Z,80.13
2023-06-07T04:30:22.544Z,79.76
2023-06-07T04:32:24.094Z,78.90
2023-06-07T04:34:25.669Z,77.39
2023-06-07T04:36:27.188Z,77.52
2023-06-07T04:38:28.718Z,77.64
2023-06-07T04:40:31.780Z,78.14
2023-06-07T04:42:33.771Z,77.61
2023-06-07T04:44:35.341Z,76.94
2023-06-07T04:46:37.002Z,77.40
2023-06-07T04:48:38.631Z,78.16
2023-06-07T04:50:40.329Z,77.98
2023-06-07T04:52:41.817Z,77.51
2023-06-07T04:54:43.357Z,76.83
2023-06-07T04:56:46.312Z,77.41
2023-06-07T04:58:47.845Z,77.29
2023-06-07T05:00:49.620Z,76.01
2023-06-07T05:02:51.203Z,74.75
2023-06-07T05:04:52.802Z,74.51
2023-06-07T05:06:54.393Z,73.65
2023-06-07T05:08:56.015Z,73.53
2023-06-07T05:10:57.598Z,72.73
2023-06-07T05:13:00.509Z,72.35
2023-06-07T05:15:02.151Z,72.36
2023-06-07T05:17:03.832Z,72.20
2023-06-07T05:19:05.369Z,71.24
2023-06-07T05:21:06.891Z,70.72
2023-06-07T05:23:08.411Z,69.92
2023-06-07T05:25:11.374Z,69.45
2023-06-07T05:27:12.891Z,71.09
2023-06-07T05:29:15.777Z,70.41
2023-06-07T05:31:17.366Z,69.66
2023-06-07T05:33:18.913Z,69.52
2023-06-07T05:35:20.700Z,71.01
2023-06-07T05:37:22.283Z,71.08
2023-06-07T05:39:23.840Z,72.52
2023-06-07T05:41:25.362Z,71.66
2023-06-07T05:43:26.989Z,71.02
2023-06-07T05:45:29.949Z,70.39
2023-06-07T05:47:31.506Z,70.75
2023-06-07T05:49:33.050Z,71.38
2023-06-07T05:51:34.598Z,70.89
2023-06-07T05:53:36.101Z,69.79
2023-06-07T05:55:37.911Z,70.10
2023-06-07T05:57:39.446Z,69.78
2023-06-07T05:59:40.973Z,68.91
2023-06-07T06:01:43.954Z,67.95
2023-06-07T06:03:45.550Z,68.20
2023-06-07T06:05:47.095Z,67.44
2023-06-07T06:07:48.663Z,66.57
2023-06-07T06:09:50.219Z,67.29
2023-06-07T06:11:51.748Z,69.48
2023-06-07T06:13:53.286Z,68.91
2023-06-07T06:15:54.786Z,70.38
2023-06-07T06:17:57.806Z,69.81
2023-06-07T06:19:59.398Z,69.47
2023-06-07T06:22:00.923Z,71.24
2023-06-07T06:24:02.548Z,71.53
2023-06-07T06:26:04.242Z,71.44
2023-06-07T06:28:05.874Z,73.46
2023-06-07T06:30:09.228Z,71.99
2023-06-07T06:32:10.738Z,71.96
2023-06-07T06:34:13.624Z,71.94
2023-06-07T06:36:15.158Z,71.39
2023-06-07T06:38:16.668Z,70.73
2023-06-07T06:40:20.219Z,70.56
2023-06-07T06:42:21.587Z,69.47
2023-06-07T06:44:23.101Z,71.02
2023-06-07T06:46:24.615Z,69.94
2023-06-07T06:48:26.168Z,69.44
2023-06-07T06:50:32.987Z,69.27
2023-06-07T06:52:35.259Z,69.56
2023-06-07T06:54:36.844Z,68.86
2023-06-07T06:56:38.425Z,68.46
2023-06-07T06:58:39.989Z,68.06
2023-06-07T07:00:41.576Z,69.67
2023-06-07T07:02:43.111Z,69.13
2023-06-07T07:04:44.638Z,69.94
2023-06-07T07:06:47.549Z,69.41
2023-06-07T07:08:49.043Z,68.33
2023-06-07T07:10:50.563Z,67.75
2023-06-07T07:12:53.512Z,66.58
2023-06-07T07:14:55.019Z,66.71
2023-06-07T07:16:56.735Z,66.69
2023-06-07T07:18:58.468Z,66.60
2023-06-07T07:20:59.998Z,66.23
2023-06-07T07:23:02.945Z,65.78
2023-06-07T07:25:05.037Z,66.01
2023-06-07T07:27:07.032Z,64.65
2023-06-07T07:29:08.600Z,63.93
2023-06-07T07:31:10.134Z,63.95
2023-06-07T07:33:12.149Z,63.54
2023-06-07T07:35:14.164Z,62.76
2023-06-07T07:37:15.874Z,62.25
2023-06-07T07:39:19.018Z,61.62
2023-06-07T07:41:20.666Z,61.04
2023-06-07T07:43:22.200Z,60.99
2023-06-07T07:45:23.694Z,60.41
2023-06-07T07:47:25.349Z,60.21
2023-06-07T07:49:26.879Z,59.77
2023-06-07T07:51:28.430Z,59.63
2023-06-07T07:53:30.028Z,59.06
2023-06-07T07:55:33.063Z,58.88
2023-06-07T07:57:34.709Z,58.49
2023-06-07T07:59:36.355Z,58.19
2023-06-07T08:01:37.965Z,58.84
2023-06-07T08:03:39.697Z,58.77
2023-06-07T08:05:41.448Z,58.98
2023-06-07T08:07:43.100Z,57.86
2023-06-07T08:09:45.157Z,57.54
2023-06-07T08:11:48.084Z,57.08
2023-06-07T08:13:49.624Z,56.28
2023-06-07T08:15:51.217Z,56.12
2023-06-07T08:17:52.792Z,55.94
2023-06-07T08:19:54.364Z,56.53
2023-06-07T08:21:55.880Z,55.95
2023-06-07T08:23:57.428Z,56.13
2023-06-07T08:25:59.048Z,56.72
2023-06-07T08:28:03.776Z,55.66
2023-06-07T08:30:06.913Z,55.61
2023-06-07T08:32:09.053Z,54.69
2023-06-07T08:34:10.489Z,54.17
2023-06-07T08:36:12.110Z,52.96
2023-06-07T08:38:13.708Z,53.01
2023-06-07T08:40:19.109Z,52.72
2023-06-07T08:42:20.832Z,52.68
2023-06-07T08:44:23.798Z,53.08
2023-06-07T08:46:26.083Z,52.40
2023-06-07T08:48:27.700Z,51.89
2023-06-07T08:50:30.025Z,51.91
2023-06-07T08:52:32.482Z,52.36
2023-06-07T08:54:34.716Z,52.53
2023-06-07T08:56:36.845Z,52.11
2023-06-07T08:58:38.526Z,52.76
2023-06-07T09:00:41.846Z,53.72
2023-06-07T09:02:43.562Z,53.94
2023-06-07T09:04:45.576Z,54.04
2023-06-07T09:06:47.149Z,53.79
2023-06-07T09:08:49.212Z,52.87
2023-06-07T09:10:51.068Z,52.14
2023-06-07T09:12:52.638Z,52.61
2023-06-07T09:14:55.108Z,52.43
2023-06-07T09:16:59.184Z,51.37
2023-06-07T09:19:00.766Z,49.54
2023-06-07T09:21:06.962Z,48.35
2023-06-07T09:23:10.410Z,47.22
2023-06-07T09:25:12.503Z,47.34
2023-06-07T09:27:14.384Z,47.15
2023-06-07T09:29:16.214Z,47.35
2023-06-07T09:31:28.464Z,47.44
2023-06-07T09:33:32.445Z,49.42
2023-06-07T09:35:34.051Z,49.04
2023-06-07T09:37:42.577Z,48.88
2023-06-07T09:39:44.109Z,48.20
2023-06-07T09:41:45.746Z,47.41
2023-06-07T09:43:49.053Z,48.20
2023-06-07T09:45:53.902Z,47.69
2023-06-07T09:48:02.441Z,46.77
2023-06-07T09:50:09.821Z,46.04
2023-06-07T09:52:13.352Z,46.49
2023-06-07T09:54:14.969Z,46.91
2023-06-07T09:56:19.902Z,46.53
2023-06-07T09:58:22.015Z,46.81
2023-06-07T10:00:23.608Z,47.30
2023-06-07T10:02:26.093Z,47.73
2023-06-07T10:04:27.901Z,47.69
2023-06-07T10:06:32.579Z,46.38
2023-06-07T10:08:34.513Z,46.03
2023-06-07T10:10:36.554Z,45.89
2023-06-07T10:12:40.568Z,44.73
2023-06-07T10:14:45.590Z,44.40
2023-06-07T10:16:52.854Z,44.30
2023-06-07T10:18:58.127Z,43.75
2023-06-07T10:21:06.649Z,44.60
2023-06-07T10:23:14.900Z,44.15
2023-06-07T10:25:20.134Z,41.23
2023-06-07T10:27:24.660Z,42.44
2023-06-07T10:29:33.288Z,42.90
2023-06-07T10:31:41.185Z,43.18
2023-06-07T10:33:43.908Z,43.67
2023-06-07T10:35:47.578Z,44.17
2023-06-07T10:37:50.178Z,43.87
2023-06-07T10:39:53.118Z,43.02
2023-06-07T10:41:55.179Z,42.27
2023-06-07T10:43:56.865Z,42.06
2023-06-07T10:46:17.441Z,42.37
2023-06-07T10:48:35.902Z,43.35
2023-06-07T10:50:47.412Z,42.88
2023-06-07T10:52:55.902Z,43.20
2023-06-07T10:54:58.876Z,43.14
2023-06-07T10:57:01.483Z,43.83
2023-06-07T10:59:21.159Z,43.05
2023-06-07T11:01:23.692Z,42.30
2023-06-07T11:03:41.199Z,41.34
2023-06-07T11:06:07.652Z,39.55
2023-06-07T11:08:22.484Z,39.37
2023-06-07T11:10:35.094Z,40.30
2023-06-07T11:12:55.269Z,40.31
2023-06-07T11:15:20.982Z,40.32
2023-06-07T11:17:50.818Z,41.98
2023-06-07T11:19:55.505Z,42.38
2023-06-07T11:22:04.308Z,42.77
2023-06-07T11:24:13.146Z,41.94
2023-06-07T11:26:16.077Z,41.82
2023-06-07T11:28:23.368Z,41.57
2023-06-07T11:30:25.105Z,41.43
2023-06-07T11:32:26.833Z,41.46
2023-06-07T11:34:31.038Z,42.00
2023-06-07T11:36:33.172Z,42.38
2023-06-07T11:38:34.717Z,42.41
2023-06-07T11:40:37.978Z,41.04
2023-06-07T11:42:41.601Z,40.80
2023-06-07T11:44:44.658Z,40.96
2023-06-07T11:46:46.292Z,40.13
2023-06-07T11:48:47.886Z,39.97
2023-06-07T11:50:49.509Z,40.78
2023-06-07T11:52:53.037Z,40.69
2023-06-07T11:54:54.594Z,41.13
2023-06-07T11:56:56.214Z,40.99
2023-06-07T11:58:59.635Z,41.05
2023-06-07T12:01:02.013Z,40.34
2023-06-07T12:03:05.569Z,40.01
2023-06-07T12:05:09.456Z,39.60
2023-06-07T12:07:20.876Z,39.59
2023-06-07T12:09:22.473Z,38.92
2023-06-07T12:11:24.067Z,39.25
2023-06-07T12:13:25.620Z,39.15
2023-06-07T12:15:30.730Z,39.99
2023-06-07T12:17:33.186Z,40.94
2023-06-07T12:19:34.761Z,41.04
2023-06-07T12:21:36.318Z,40.36
2023-06-07T12:23:38.908Z,41.12
2023-06-07T12:25:41.098Z,40.91
2023-06-07T12:27:45.336Z,41.24
2023-06-07T12:29:54.169Z,41.10
2023-06-07T12:31:57.667Z,41.19
2023-06-07T12:34:01.506Z,40.85
2023-06-07T12:36:03.122Z,41.17
2023-06-07T12:38:05.002Z,41.14
2023-06-07T12:40:08.408Z,41.24
2023-06-07T12:42:10.149Z,41.24
2023-06-07T12:44:12.110Z,41.50
2023-06-07T12:46:13.758Z,41.20
2023-06-07T12:48:16.781Z,41.32
2023-06-07T12:50:18.359Z,41.33
2023-06-07T12:52:19.949Z,41.14
2023-06-07T12:54:21.558Z,42.25
2023-06-07T12:56:23.327Z,41.71
2023-06-07T12:58:24.836Z,41.17
2023-06-07T13:00:26.483Z,41.47
2023-06-07T13:02:28.594Z,41.69
2023-06-07T13:04:34.433Z,41.56
2023-06-07T13:06:36.088Z,41.58
2023-06-07T13:08:37.699Z,41.48
2023-06-07T13:10:39.230Z,41.48
2023-06-07T13:12:40.746Z,40.92
2023-06-07T13:14:42.599Z,40.69
2023-06-07T13:16:44.196Z,40.98
2023-06-07T13:18:45.824Z,41.31
2023-06-07T13:20:48.829Z,40.94
2023-06-07T13:22:50.416Z,40.81
2023-06-07T13:24:51.996Z,40.27
2023-06-07T13:26:54.691Z,40.91
2023-06-07T13:28:56.361Z,39.46
2023-06-07T13:30:57.913Z,38.92
2023-06-07T13:32:59.565Z,38.75
2023-06-07T13:35:01.152Z,39.73
2023-06-07T13:37:04.139Z,39.66
2023-06-07T13:39:05.799Z,39.53
2023-06-07T13:41:07.331Z,38.93
2023-06-07T13:43:09.029Z,39.57
2023-06-07T13:45:11.222Z,39.71
2023-06-07T13:47:12.755Z,38.99
2023-06-07T13:49:14.264Z,38.31
2023-06-07T13:51:18.048Z,37.91
2023-06-07T13:53:20.924Z,38.24
2023-06-07T13:55:22.550Z,36.99
2023-06-07T13:57:27.870Z,37.06
2023-06-07T13:59:30.070Z,37.11
2023-06-07T14:01:31.861Z,37.66
2023-06-07T14:03:34.156Z,37.38
2023-06-07T14:05:35.952Z,37.30
2023-06-07T14:07:37.515Z,38.15
2023-06-07T14:09:40.384Z,38.21
2023-06-07T14:11:41.934Z,37.47
2023-06-07T14:13:44.069Z,36.53
2023-06-07T14:15:45.675Z,36.77
2023-06-07T14:17:47.300Z,36.74
2023-06-07T14:19:48.892Z,35.84
2023-06-07T14:21:50.588Z,35.45
2023-06-07T14:23:52.244Z,34.85
2023-06-07T14:25:55.312Z,34.52
2023-06-07T14:27:57.114Z,34.07
2023-06-07T14:29:58.753Z,34.25
2023-06-07T14:32:00.410Z,33.44
2023-06-07T14:34:02.032Z,33.21
2023-06-07T14:36:04.281Z,32.69
2023-06-07T14:38:05.871Z,32.73
2023-06-07T14:40:08.703Z,32.87
2023-06-07T14:42:14.902Z,32.44
2023-06-07T14:44:17.412Z,32.90
2023-06-07T14:46:19.206Z,32.63
2023-06-07T14:48:20.935Z,32.31
2023-06-07T14:50:22.570Z,31.74
2023-06-07T14:52:24.406Z,32.12
2023-06-07T14:54:25.999Z,31.57
2023-06-07T14:56:27.647Z,31.38
2023-06-07T14:58:30.575Z,31.35
2023-06-07T15:00:33.496Z,31.54
2023-06-07T15:02:35.247Z,32.01
2023-06-07T15:04:38.099Z,31.82
2023-06-07T15:06:39.898Z,32.25
2023-06-07T15:08:41.446Z,32.42
2023-06-07T15:10:42.975Z,32.35
2023-06-07T15:12:44.620Z,32.30
2023-06-07T15:14:47.543Z,31.60
2023-06-07T15:16:49.065Z,30.57
2023-06-07T15:18:50.663Z,30.19
2023-06-07T15:20:52.171Z,29.56
2023-06-07T15:22:53.782Z,29.73
2023-06-07T15:24:55.343Z,29.04
2023-06-07T15:26:57.144Z,28.90
2023-06-07T15:28:59.427Z,29.17
2023-06-07T15:31:02.528Z,28.83
2023-06-07T15:33:05.132Z,29.51
2023-06-07T15:35:11.676Z,28.85
2023-06-07T15:37:14.357Z,28.93
2023-06-07T15:39:15.924Z,29.81
2023-06-07T15:41:17.546Z,29.80
2023-06-07T15:43:19.143Z,29.19
2023-06-07T15:45:20.705Z,29.69
2023-06-07T15:47:23.631Z,30.46
2023-06-07T15:49:25.233Z,30.77
2023-06-07T15:51:26.890Z,30.37
2023-06-07T15:53:28.546Z,30.00
2023-06-07T15:55:30.060Z,29.93
2023-06-07T15:57:31.665Z,30.09
2023-06-07T15:59:33.422Z,29.93
2023-06-07T16:01:35.032Z,30.26
2023-06-07T16:03:54.221Z,29.46
2023-06-07T16:05:57.089Z,29.40
2023-06-07T16:08:04.425Z,29.14
2023-06-07T16:10:11.217Z,29.29
2023-06-07T16:12:12.744Z,28.87
2023-06-07T16:14:14.254Z,28.16
2023-06-07T16:16:15.837Z,28.42
2023-06-07T16:18:17.409Z,28.51
2023-06-07T16:20:20.335Z,28.28
2023-06-07T16:22:21.871Z,28.34
2023-06-07T16:24:23.413Z,28.57
2023-06-07T16:26:24.969Z,28.89
2023-06-07T16:28:26.529Z,28.51
2023-06-07T16:30:28.078Z,28.44
2023-06-07T16:32:29.682Z,28.17
2023-06-07T16:34:31.289Z,27.27
2023-06-07T16:36:34.166Z,27.20
2023-06-07T16:38:35.797Z,27.81
2023-06-07T16:40:37.988Z,28.35
2023-06-07T16:42:39.528Z,28.37
2023-06-07T16:44:41.105Z,28.91
2023-06-07T16:46:44.410Z,28.63
2023-06-07T16:48:48.116Z,28.90
2023-06-07T16:50:49.699Z,28.60
2023-06-07T16:52:52.659Z,29.31
2023-06-07T16:54:54.296Z,28.48
2023-06-07T16:56:55.989Z,27.89
2023-06-07T16:58:57.550Z,28.20
2023-06-07T17:00:59.130Z,27.86
2023-06-07T17:03:00.783Z,28.60
2023-06-07T17:05:02.533Z,28.10
2023-06-07T17:07:04.681Z,28.66
2023-06-07T17:09:07.583Z,28.44
2023-06-07T17:11:09.237Z,28.13
2023-06-07T17:13:10.871Z,28.47
2023-06-07T17:15:12.463Z,28.23
2023-06-07T17:17:13.985Z,27.81
2023-06-07T17:19:15.611Z,28.75
2023-06-07T17:21:17.159Z,28.14
2023-06-07T17:23:18.730Z,28.10
2023-06-07T17:25:21.775Z,28.60
2023-06-07T17:27:23.165Z,28.36
2023-06-07T17:29:30.020Z,28.83
2023-06-07T17:31:32.034Z,29.69
2023-06-07T17:33:33.601Z,30.04
2023-06-07T17:35:35.198Z,30.25
2023-06-07T17:37:36.853Z,31.08
2023-06-07T17:39:38.544Z,31.43
2023-06-07T17:41:43.241Z,31.86
2023-06-07T17:43:44.810Z,32.29
2023-06-07T17:45:46.437Z,33.42
2023-06-07T17:47:49.520Z,33.53
2023-06-07T17:49:51.111Z,33.57
2023-06-07T17:51:52.677Z,33.94
2023-06-07T17:53:54.218Z,34.28
2023-06-07T17:55:55.782Z,34.22
2023-06-07T17:57:58.761Z,35.11
2023-06-07T18:00:00.340Z,34.80
2023-06-07T18:02:01.935Z,35.24
2023-06-07T18:04:04.063Z,35.18
2023-06-07T18:06:05.738Z,35.64
2023-06-07T18:08:07.356Z,35.90
2023-06-07T18:10:09.650Z,36.51
2023-06-07T18:12:13.917Z,36.51
2023-06-07T18:14:17.157Z,37.14
2023-06-07T18:16:18.784Z,37.05
2023-06-07T18:18:20.346Z,37.14
2023-06-07T18:20:21.967Z,36.90
2023-06-07T18:22:23.521Z,37.16
2023-06-07T18:24:25.095Z,37.14
2023-06-07T18:26:26.685Z,37.63
2023-06-07T18:28:28.398Z,37.79
2023-06-07T18:30:31.368Z,37.67
2023-06-07T18:32:32.975Z,37.36
2023-06-07T18:34:35.311Z,37.62
2023-06-07T18:36:37.053Z,38.04
2023-06-07T18:38:38.613Z,38.13
2023-06-07T18:40:40.194Z,37.86
2023-06-07T18:42:41.784Z,38.06
2023-06-07T18:44:43.393Z,38.12
2023-06-07T18:46:46.807Z,38.75
2023-06-07T18:48:48.450Z,38.69
2023-06-07T18:50:50.075Z,38.36
2023-06-07T18:52:52.362Z,38.46
2023-06-07T18:54:54.653Z,38.58
2023-06-07T18:56:56.327Z,38.39
2023-06-07T18:58:57.911Z,38.24
2023-06-07T19:00:59.566Z,38.67
2023-06-07T19:03:05.045Z,39.09
2023-06-07T19:05:07.813Z,39.06
2023-06-07T19:07:09.606Z,39.80
2023-06-07T19:09:11.141Z,40.19
2023-06-07T19:11:12.814Z,40.14
2023-06-07T19:13:14.381Z,39.93
2023-06-07T19:15:15.955Z,39.77
2023-06-07T19:17:17.557Z,40.00
2023-06-07T19:19:20.446Z,40.33
2023-06-07T19:21:22.006Z,40.34
2023-06-07T19:23:23.583Z,40.89
2023-06-07T19:25:25.222Z,41.54
2023-06-07T19:27:26.778Z,41.62
2023-06-07T19:29:28.686Z,41.75
2023-06-07T19:31:30.411Z,41.22
2023-06-07T19:33:31.987Z,41.48
2023-06-07T19:35:34.916Z,41.96
2023-06-07T19:37:36.431Z,41.78
2023-06-07T19:39:38.073Z,41.80
2023-06-07T19:41:39.604Z,41.99
2023-06-07T19:43:41.782Z,42.38
2023-06-07T19:45:43.438Z,42.59
2023-06-07T19:47:45.143Z,42.69
2023-06-07T19:49:46.716Z,43.50
2023-06-07T19:51:49.595Z,43.19
2023-06-07T19:53:51.151Z,43.83
2023-06-07T19:55:52.734Z,43.75
2023-06-07T19:57:54.759Z,43.84
2023-06-07T19:59:56.352Z,43.99
2023-06-07T20:01:58.008Z,43.89
2023-06-07T20:04:19.130Z,43.82
2023-06-07T20:06:25.378Z,44.11
2023-06-07T20:08:28.260Z,44.14
2023-06-07T20:10:29.834Z,44.11
2023-06-07T20:12:31.488Z,43.80
2023-06-07T20:14:33.253Z,44.26
2023-06-07T20:16:34.867Z,44.09
2023-06-07T20:18:36.591Z,44.11
2023-06-07T20:20:38.144Z,44.55
2023-06-07T20:22:39.689Z,44.54
2023-06-07T20:24:42.569Z,44.81
2023-06-07T20:26:44.146Z,44.73
2023-06-07T20:28:45.676Z,44.30
2023-06-07T20:30:47.271Z,44.16
2023-06-07T20:32:48.872Z,44.60
2023-06-07T20:34:50.428Z,44.51
2023-06-07T20:36:51.999Z,44.08
2023-06-07T20:38:53.543Z,44.16
2023-06-07T20:40:56.458Z,44.17
2023-06-07T20:42:58.020Z,44.96
2023-06-07T20:44:59.560Z,45.48
2023-06-07T20:47:01.166Z,45.92
2023-06-07T20:49:02.954Z,45.52
2023-06-07T20:51:04.530Z,45.31
2023-06-07T20:53:06.120Z,45.97
2023-06-07T20:55:08.400Z,46.45
2023-06-07T20:57:12.080Z,46.35
2023-06-07T20:59:13.766Z,46.29
2023-06-07T21:01:17.397Z,46.15
2023-06-07T21:03:19.067Z,45.23
2023-06-07T21:05:20.779Z,45.53
2023-06-07T21:07:22.513Z,45.91
2023-06-07T21:09:24.051Z,46.93
2023-06-07T21:11:25.663Z,47.04
2023-06-07T21:13:28.694Z,47.51
2023-06-07T21:15:30.267Z,47.19
2023-06-07T21:17:32.261Z,47.51
2023-06-07T21:19:34.218Z,47.67
2023-06-07T21:21:35.825Z,48.11
2023-06-07T21:23:37.570Z,48.74
2023-06-07T21:25:39.223Z,49.35
2023-06-07T21:27:40.732Z,49.07
2023-06-07T21:29:43.628Z,49.51
2023-06-07T21:31:45.650Z,49.89
2023-06-07T21:33:59.822Z,50.37
2023-06-07T21:36:01.356Z,50.73
2023-06-07T21:38:02.958Z,51.00
2023-06-07T21:40:05.846Z,50.78
2023-06-07T21:42:07.989Z,51.14
2023-06-07T21:44:09.674Z,52.09
2023-06-07T21:46:12.572Z,52.67
2023-06-07T21:48:14.315Z,53.04
2023-06-07T21:50:15.967Z,53.01
2023-06-07T21:52:17.644Z,53.38
2023-06-07T21:54:19.198Z,53.10
2023-06-07T21:56:20.723Z,52.95
2023-06-07T21:58:22.356Z,53.36
2023-06-07T22:00:23.918Z,53.48
2023-06-07T22:02:26.998Z,53.36
2023-06-07T22:04:28.646Z,53.49
2023-06-07T22:06:30.263Z,53.56
2023-06-07T22:08:31.802Z,54.11
2023-06-07T22:10:33.379Z,53.94
2023-06-07T22:12:34.933Z,54.19
2023-06-07T22:14:37.009Z,54.54
2023-06-07T22:16:38.661Z,54.79
2023-06-07T22:18:41.841Z,54.48
2023-06-07T22:20:43.814Z,54.15
2023-06-07T22:22:45.432Z,54.23
2023-06-07T22:24:47.134Z,54.38
2023-06-07T22:26:48.679Z,54.12
2023-06-07T22:28:50.224Z,54.64
2023-06-07T22:30:51.781Z,54.63
2023-06-07T22:32:53.349Z,55.00
2023-06-07T22:34:56.722Z,54.87
2023-06-07T22:36:58.223Z,55.29
2023-06-07T22:39:00.467Z,55.56
2023-06-07T22:41:02.039Z,55.95
2023-06-07T22:43:03.592Z,56.10
2023-06-07T22:45:06.305Z,55.90
2023-06-07T22:47:08.322Z,55.54
2023-06-07T22:49:09.868Z,56.09
2023-06-07T22:51:12.897Z,56.11
2023-06-07T22:53:15.443Z,56.24
2023-06-07T22:55:17.109Z,57.66
2023-06-07T22:57:18.666Z,58.31
2023-06-07T22:59:20.356Z,58.95
2023-06-07T23:01:21.948Z,58.72
2023-06-07T23:03:23.624Z,58.36
2023-06-07T23:05:25.400Z,58.26
2023-06-07T23:07:28.387Z,58.05
2023-06-07T23:09:30.049Z,58.16
2023-06-07T23:11:32.088Z,58.21
2023-06-07T23:13:33.675Z,58.72
2023-06-07T23:15:35.445Z,59.15
2023-06-07T23:17:37.050Z,60.44
2023-06-07T23:19:38.643Z,60.79
2023-06-07T23:21:40.212Z,61.04
2023-06-07T23:23:43.134Z,61.13
2023-06-07T23:25:45.137Z,61.71
2023-06-07T23:27:46.841Z,61.23
2023-06-07T23:29:48.426Z,61.61
2023-06-07T23:31:49.992Z,61.00
2023-06-07T23:33:51.612Z,61.04
2023-06-07T23:35:53.201Z,60.74
2023-06-07T23:37:54.801Z,60.75
2023-06-07T23:40:01.865Z,60.81
2023-06-07T23:42:05.085Z,59.80
2023-06-07T23:44:06.931Z,59.37
2023-06-07T23:46:08.666Z,60.36
2023-06-07T23:48:10.275Z,60.84
2023-06-07T23:50:11.911Z,61.18
2023-06-07T23:52:13.484Z,61.69
2023-06-07T23:54:15.085Z,62.00
2023-06-07T23:56:18.083Z,62.30
2023-06-07T23:58:19.633Z,62.17
